createdAt,value
2019-04-04T00:04:01.555Z,996.87
2019-04-04T00:14:01.663Z,996.57
2019-04-04T00:19:01.521Z,996.47
2019-04-04T00:34:01.488Z,996.38
2019-04-04T00:39:01.392Z,996.38
2019-04-04T00:54:01.595Z,996.3
2019-04-04T01:09:01.539Z,996.25
2019-04-04T01:19:01.479Z,996.27
2019-04-04T01:29:01.544Z,997.95
2019-04-04T01:39:01.634Z,997.01
2019-04-04T01:49:01.622Z,996.56
2019-04-04T02:04:01.524Z,996.83
2019-04-04T02:09:03.579Z,996.7
2019-04-04T02:24:02.241Z,996.59
2019-04-04T02:34:06.476Z,996.35
2019-04-04T02:49:01.538Z,996.2
2019-04-04T02:59:01.592Z,996.2
2019-04-04T03:14:04.855Z,995.34
2019-04-04T03:24:07.253Z,995.64
2019-04-04T03:34:12.114Z,995.73
2019-04-04T03:49:01.596Z,995.32
2019-04-04T04:04:01.679Z,995.38
2019-04-04T04:19:01.534Z,995.61
2019-04-04T04:24:01.479Z,995.61
2019-04-04T04:29:01.387Z,995.64
2019-04-04T04:34:02.333Z,995.64
2019-04-04T04:39:01.493Z,995.84
2019-04-04T04:44:06.893Z,995.84
2019-04-04T04:49:04.571Z,996.26
2019-04-04T04:54:01.551Z,996.26
2019-04-04T05:00:11.509Z,996.38
2019-04-04T05:05:01.522Z,996.38
2019-04-04T05:15:02.533Z,996.39
2019-04-04T05:20:01.447Z,996.26
2019-04-04T05:30:01.545Z,996.37
2019-04-04T05:40:01.448Z,996.36
2019-04-04T05:45:01.217Z,996.36
2019-04-04T05:50:01.517Z,996.41
2019-04-04T06:00:01.549Z,996.29
2019-04-04T06:10:01.417Z,996.37
2019-04-04T06:15:06.477Z,996.37
2019-04-04T06:20:01.408Z,996.53
2019-04-04T06:25:02.624Z,996.53
2019-04-04T06:30:01.253Z,996.77
2019-04-04T06:35:01.460Z,996.77
2019-04-04T06:40:01.497Z,997.03
2019-04-04T06:45:01.455Z,997.03
2019-04-04T06:50:01.582Z,996.89
2019-04-04T06:55:01.432Z,996.89
2019-04-04T07:00:01.523Z,997.0
2019-04-04T07:05:01.401Z,997.0
2019-04-04T07:15:01.552Z,997.07
2019-04-04T07:20:01.492Z,997.07
2019-04-04T07:31:02.587Z,997.03
2019-04-04T07:36:01.554Z,997.03
2019-04-04T07:41:01.432Z,996.8
2019-04-04T07:46:17.096Z,996.8
2019-04-04T07:51:01.598Z,996.85
2019-04-04T07:56:01.594Z,996.85
2019-04-04T08:06:01.575Z,997.01
2019-04-04T08:16:01.607Z,996.95
2019-04-04T08:21:01.588Z,997.36
2019-04-04T08:26:01.462Z,997.36
2019-04-04T08:36:07.041Z,997.25
2019-04-04T08:41:01.496Z,997.17
2019-04-04T08:51:01.480Z,997.15
2019-04-04T08:56:01.508Z,997.15
2019-04-04T09:01:01.647Z,997.02
2019-04-04T09:06:01.539Z,997.02
2019-04-04T09:11:01.484Z,997.01
2019-04-04T09:16:01.941Z,997.01
2019-04-04T09:21:01.562Z,996.98
2019-04-04T09:26:06.527Z,996.98
2019-04-04T09:31:01.443Z,996.93
2019-04-04T09:37:01.547Z,996.93
2019-04-04T09:42:01.457Z,996.86
2019-04-04T09:47:05.984Z,996.86
2019-04-04T09:52:01.451Z,996.95
2019-04-04T10:02:01.310Z,996.99
2019-04-04T10:07:01.579Z,996.99
2019-04-04T10:12:01.575Z,997.17
2019-04-04T10:17:01.523Z,997.17
2019-04-04T10:22:01.698Z,997.18
2019-04-04T10:27:01.711Z,997.18
2019-04-04T10:32:01.517Z,997.31
2019-04-04T10:37:01.617Z,997.31
2019-04-04T10:42:01.516Z,997.45
2019-04-04T10:52:01.802Z,997.24
2019-04-04T10:57:01.553Z,997.24
2019-04-04T11:02:01.502Z,997.32
2019-04-04T11:07:01.604Z,997.32
2019-04-04T11:17:01.354Z,997.23
2019-04-04T11:22:01.481Z,997.22
2019-04-04T11:28:01.574Z,997.22
2019-04-04T11:33:01.522Z,997.22
2019-04-04T11:38:01.474Z,997.25
2019-04-04T11:43:01.662Z,997.25
2019-04-04T11:53:01.556Z,997.32
2019-04-04T11:58:01.467Z,997.39
2019-04-04T12:03:01.632Z,997.39
2019-04-04T12:18:01.495Z,997.32
2019-04-04T12:23:01.675Z,997.32
2019-04-04T12:28:01.609Z,997.25
2019-04-04T12:33:01.629Z,997.25
2019-04-04T12:38:01.625Z,997.1
2019-04-04T12:43:01.587Z,997.1
2019-04-04T12:48:01.545Z,997.13
2019-04-04T12:53:01.583Z,997.13
2019-04-04T12:58:01.497Z,997.12
2019-04-04T13:03:01.649Z,997.12
2019-04-04T13:08:01.564Z,997.03
2019-04-04T13:13:01.672Z,997.03
2019-04-04T13:18:01.475Z,997.35
2019-04-04T13:23:01.652Z,997.35
2019-04-04T13:28:01.514Z,997.39
2019-04-04T13:33:01.693Z,997.39
2019-04-04T13:38:01.569Z,997.56
2019-04-04T13:43:01.640Z,997.56
2019-04-04T13:48:01.523Z,997.64
2019-04-04T13:53:01.593Z,997.64
2019-04-04T13:58:01.564Z,997.5
2019-04-04T14:03:01.591Z,997.5
2019-04-04T14:08:01.674Z,997.41
2019-04-04T14:13:01.667Z,997.41
2019-04-04T14:18:01.553Z,997.45
2019-04-04T14:28:01.643Z,997.56
2019-04-04T14:33:01.714Z,997.56
2019-04-04T14:43:01.681Z,997.56
2019-04-04T14:48:01.507Z,997.59
2019-04-04T14:58:01.686Z,997.74
2019-04-04T15:13:01.592Z,997.67
2019-04-04T15:28:01.701Z,997.55
2019-04-04T15:43:01.713Z,997.63
2019-04-04T15:48:01.540Z,997.64
2019-04-04T15:53:01.588Z,997.64
2019-04-04T15:58:01.542Z,997.64
2019-04-04T16:08:01.666Z,997.83
2019-04-04T16:13:01.662Z,997.83
2019-04-04T16:18:01.915Z,997.83
2019-04-04T16:23:01.658Z,997.83
2019-04-04T16:28:01.647Z,997.86
2019-04-04T16:33:01.739Z,997.86
2019-04-04T16:48:01.716Z,997.86
2019-04-04T17:03:01.689Z,997.97
2019-04-04T17:08:01.703Z,998.08
2019-04-04T17:13:02.735Z,998.08
2019-04-04T17:18:01.544Z,998.14
2019-04-04T17:23:01.606Z,998.14
2019-04-04T17:28:02.241Z,998.26
2019-04-04T17:33:01.627Z,998.26
2019-04-04T17:38:01.999Z,998.37
2019-04-04T17:44:01.563Z,998.37
2019-04-04T17:49:02.272Z,998.65
2019-04-04T17:54:01.742Z,998.65
2019-04-04T17:59:01.629Z,998.61
2019-04-04T18:04:01.791Z,998.61
2019-04-04T18:09:01.635Z,998.7
2019-04-04T18:14:01.648Z,998.7
2019-04-04T18:19:01.613Z,998.8
2019-04-04T18:25:01.556Z,998.8
2019-04-04T18:30:01.634Z,999.16
2019-04-04T18:35:02.253Z,999.16
2019-04-04T18:40:01.721Z,999.43
2019-04-04T18:45:01.590Z,999.43
2019-04-04T18:50:01.571Z,999.64
2019-04-04T18:55:01.609Z,999.64
2019-04-04T19:00:01.727Z,999.91
2019-04-04T19:05:01.659Z,999.91
2019-04-04T19:10:01.450Z,1000.03
2019-04-04T19:15:01.556Z,1000.03
2019-04-04T19:25:01.524Z,999.87
2019-04-04T19:30:01.469Z,999.86
2019-04-04T19:35:01.518Z,999.86
2019-04-04T19:40:01.618Z,1000.13
2019-04-04T19:45:01.612Z,1000.13
2019-04-04T19:50:01.463Z,1000.18
2019-04-04T19:55:01.505Z,1000.18
2019-04-04T20:00:01.550Z,1000.08
2019-04-04T20:11:02.790Z,1000.38
2019-04-04T20:16:01.498Z,1000.38
2019-04-04T20:31:01.532Z,1000.37
2019-04-04T20:41:01.730Z,1000.25
2019-04-04T20:46:01.540Z,1000.25
2019-04-04T20:51:01.505Z,1000.43
2019-04-04T20:56:01.716Z,1000.43
2019-04-04T21:06:01.496Z,1000.3
2019-04-04T21:21:01.683Z,1000.3
2019-04-04T21:31:01.486Z,1000.36
2019-04-04T21:46:01.522Z,1000.54
2019-04-04T21:51:01.470Z,1000.46
2019-04-04T22:06:01.598Z,1000.4
2019-04-04T22:11:02.462Z,1000.43
2019-04-04T22:26:01.489Z,1000.43
2019-04-04T22:31:01.463Z,1000.41
2019-04-04T22:46:01.646Z,1000.32
2019-04-04T23:01:01.597Z,1000.25
2019-04-04T23:12:01.607Z,1000.22
2019-04-04T23:22:01.605Z,1000.37
2019-04-04T23:37:01.683Z,1000.45
2019-04-04T23:42:01.419Z,1000.39
2019-04-04T23:57:01.637Z,1000.44
